sensor_id;sensor_type;location;lat;lon;timestamp;temperature;humidity
6738;DHT22;3406;49.902;8.596;2024-02-14T00:01:20;7.10;77.40
6738;DHT22;3406;49.902;8.596;2024-02-14T00:03:47;7.10;77.40
6738;DHT22;3406;49.902;8.596;2024-02-14T00:06:14;7.20;77.60
6738;DHT22;3406;49.902;8.596;2024-02-14T00:08:40;7.20;77.70
6738;DHT22;3406;49.902;8.596;2024-02-14T00:11:07;7.20;77.70
6738;DHT22;3406;49.902;8.596;2024-02-14T00:13:34;7.20;77.80
6738;DHT22;3406;49.902;8.596;2024-02-14T00:16:02;7.30;77.90
6738;DHT22;3406;49.902;8.596;2024-02-14T00:18:29;7.40;78.00
6738;DHT22;3406;49.902;8.596;2024-02-14T00:20:55;7.40;78.00
6738;DHT22;3406;49.902;8.596;2024-02-14T00:23:22;7.40;78.00
6738;DHT22;3406;49.902;8.596;2024-02-14T00:25:49;7.50;78.10
6738;DHT22;3406;49.902;8.596;2024-02-14T00:28:15;7.50;78.00
6738;DHT22;3406;49.902;8.596;2024-02-14T00:30:43;7.60;78.20
6738;DHT22;3406;49.902;8.596;2024-02-14T00:33:11;7.60;78.30
6738;DHT22;3406;49.902;8.596;2024-02-14T00:35:38;7.60;78.40
6738;DHT22;3406;49.902;8.596;2024-02-14T00:38:04;7.60;78.60
6738;DHT22;3406;49.902;8.596;2024-02-14T00:40:31;7.60;78.80
6738;DHT22;3406;49.902;8.596;2024-02-14T00:42:58;7.60;78.90
6738;DHT22;3406;49.902;8.596;2024-02-14T00:45:25;7.60;79.00
6738;DHT22;3406;49.902;8.596;2024-02-14T00:47:52;7.60;79.10
6738;DHT22;3406;49.902;8.596;2024-02-14T00:50:20;7.70;79.20
6738;DHT22;3406;49.902;8.596;2024-02-14T00:52:47;7.70;79.20
6738;DHT22;3406;49.902;8.596;2024-02-14T00:55:14;7.70;79.30
6738;DHT22;3406;49.902;8.596;2024-02-14T00:57:40;7.80;79.40
6738;DHT22;3406;49.902;8.596;2024-02-14T01:00:08;7.70;79.20
6738;DHT22;3406;49.902;8.596;2024-02-14T01:02:35;7.70;79.30
6738;DHT22;3406;49.902;8.596;2024-02-14T01:05:02;7.70;79.30
6738;DHT22;3406;49.902;8.596;2024-02-14T01:07:31;7.70;79.30
6738;DHT22;3406;49.902;8.596;2024-02-14T01:09:57;7.70;79.30
6738;DHT22;3406;49.902;8.596;2024-02-14T01:12:24;7.70;79.40
6738;DHT22;3406;49.902;8.596;2024-02-14T01:14:51;7.70;79.50
6738;DHT22;3406;49.902;8.596;2024-02-14T01:17:18;7.60;79.50
6738;DHT22;3406;49.902;8.596;2024-02-14T01:19:44;7.60;79.50
6738;DHT22;3406;49.902;8.596;2024-02-14T01:22:11;7.60;79.70
6738;DHT22;3406;49.902;8.596;2024-02-14T01:24:43;7.50;79.60
6738;DHT22;3406;49.902;8.596;2024-02-14T01:27:10;7.50;79.80
6738;DHT22;3406;49.902;8.596;2024-02-14T01:29:37;7.50;79.90
6738;DHT22;3406;49.902;8.596;2024-02-14T01:32:04;7.40;79.90
6738;DHT22;3406;49.902;8.596;2024-02-14T01:34:32;7.40;80.00
6738;DHT22;3406;49.902;8.596;2024-02-14T01:36:59;7.40;80.10
6738;DHT22;3406;49.902;8.596;2024-02-14T01:39:26;7.40;80.20
6738;DHT22;3406;49.902;8.596;2024-02-14T01:41:54;7.40;80.30
6738;DHT22;3406;49.902;8.596;2024-02-14T01:44:21;7.40;80.40
6738;DHT22;3406;49.902;8.596;2024-02-14T01:46:47;7.40;80.60
6738;DHT22;3406;49.902;8.596;2024-02-14T01:49:15;7.40;80.60
6738;DHT22;3406;49.902;8.596;2024-02-14T01:51:43;7.40;80.60
6738;DHT22;3406;49.902;8.596;2024-02-14T01:54:12;7.50;80.70
6738;DHT22;3406;49.902;8.596;2024-02-14T01:56:39;7.50;80.70
6738;DHT22;3406;49.902;8.596;2024-02-14T01:59:08;7.50;80.60
6738;DHT22;3406;49.902;8.596;2024-02-14T02:01:35;7.60;80.70
6738;DHT22;3406;49.902;8.596;2024-02-14T02:04:02;7.60;80.60
6738;DHT22;3406;49.902;8.596;2024-02-14T02:06:30;7.60;80.70
6738;DHT22;3406;49.902;8.596;2024-02-14T02:08:57;7.70;80.70
6738;DHT22;3406;49.902;8.596;2024-02-14T02:11:24;7.70;80.60
6738;DHT22;3406;49.902;8.596;2024-02-14T02:13:51;7.70;80.60
6738;DHT22;3406;49.902;8.596;2024-02-14T02:16:19;7.70;80.50
6738;DHT22;3406;49.902;8.596;2024-02-14T02:18:47;7.70;80.50
6738;DHT22;3406;49.902;8.596;2024-02-14T02:21:15;7.70;80.50
6738;DHT22;3406;49.902;8.596;2024-02-14T02:23:46;7.70;80.50
6738;DHT22;3406;49.902;8.596;2024-02-14T02:26:12;7.60;80.50
6738;DHT22;3406;49.902;8.596;2024-02-14T02:28:39;7.60;80.50
6738;DHT22;3406;49.902;8.596;2024-02-14T02:31:07;7.50;80.50
6738;DHT22;3406;49.902;8.596;2024-02-14T02:33:34;7.50;80.70
6738;DHT22;3406;49.902;8.596;2024-02-14T02:36:01;7.50;80.70
6738;DHT22;3406;49.902;8.596;2024-02-14T02:38:28;7.50;80.80
6738;DHT22;3406;49.902;8.596;2024-02-14T02:40:56;7.50;80.80
6738;DHT22;3406;49.902;8.596;2024-02-14T02:43:23;7.50;80.90
6738;DHT22;3406;49.902;8.596;2024-02-14T02:45:49;7.50;81.00
6738;DHT22;3406;49.902;8.596;2024-02-14T02:48:16;7.50;81.80
6738;DHT22;3406;49.902;8.596;2024-02-14T02:50:42;7.50;81.10
6738;DHT22;3406;49.902;8.596;2024-02-14T02:53:09;7.50;81.10
6738;DHT22;3406;49.902;8.596;2024-02-14T02:55:37;7.60;81.20
6738;DHT22;3406;49.902;8.596;2024-02-14T02:58:05;7.60;81.20
6738;DHT22;3406;49.902;8.596;2024-02-14T03:00:32;7.60;81.30
6738;DHT22;3406;49.902;8.596;2024-02-14T03:02:59;7.60;81.30
6738;DHT22;3406;49.902;8.596;2024-02-14T03:05:26;7.60;81.40
6738;DHT22;3406;49.902;8.596;2024-02-14T03:07:53;7.70;81.60
6738;DHT22;3406;49.902;8.596;2024-02-14T03:10:21;7.70;81.50
6738;DHT22;3406;49.902;8.596;2024-02-14T03:12:48;7.70;81.60
6738;DHT22;3406;49.902;8.596;2024-02-14T03:15:17;7.80;81.60
6738;DHT22;3406;49.902;8.596;2024-02-14T03:17:44;7.80;81.60
6738;DHT22;3406;49.902;8.596;2024-02-14T03:20:11;7.80;81.50
6738;DHT22;3406;49.902;8.596;2024-02-14T03:22:39;7.80;81.60
6738;DHT22;3406;49.902;8.596;2024-02-14T03:25:12;7.80;81.60
6738;DHT22;3406;49.902;8.596;2024-02-14T03:27:39;7.90;81.60
6738;DHT22;3406;49.902;8.596;2024-02-14T03:30:08;7.90;81.60
6738;DHT22;3406;49.902;8.596;2024-02-14T03:32:36;7.90;81.60
6738;DHT22;3406;49.902;8.596;2024-02-14T03:35:03;7.90;81.60
6738;DHT22;3406;49.902;8.596;2024-02-14T03:37:31;7.90;81.60
6738;DHT22;3406;49.902;8.596;2024-02-14T03:39:59;7.90;81.60
6738;DHT22;3406;49.902;8.596;2024-02-14T03:42:25;8.00;81.60
6738;DHT22;3406;49.902;8.596;2024-02-14T03:44:52;8.00;81.60
6738;DHT22;3406;49.902;8.596;2024-02-14T03:47:25;8.00;81.60
6738;DHT22;3406;49.902;8.596;2024-02-14T03:49:53;8.00;81.50
6738;DHT22;3406;49.902;8.596;2024-02-14T03:52:20;8.10;81.70
6738;DHT22;3406;49.902;8.596;2024-02-14T03:54:48;8.10;81.60
6738;DHT22;3406;49.902;8.596;2024-02-14T03:57:16;8.10;81.60
6738;DHT22;3406;49.902;8.596;2024-02-14T03:59:43;8.10;81.60
6738;DHT22;3406;49.902;8.596;2024-02-14T04:02:10;8.10;81.60
6738;DHT22;3406;49.902;8.596;2024-02-14T04:04:37;8.10;81.60
6738;DHT22;3406;49.902;8.596;2024-02-14T04:07:06;8.10;81.60
6738;DHT22;3406;49.902;8.596;2024-02-14T04:09:33;8.20;81.70
6738;DHT22;3406;49.902;8.596;2024-02-14T04:12:00;8.20;81.70
6738;DHT22;3406;49.902;8.596;2024-02-14T04:14:27;8.20;81.60
6738;DHT22;3406;49.902;8.596;2024-02-14T04:16:54;8.20;81.50
6738;DHT22;3406;49.902;8.596;2024-02-14T04:19:20;8.20;81.50
6738;DHT22;3406;49.902;8.596;2024-02-14T04:21:47;8.20;81.40
6738;DHT22;3406;49.902;8.596;2024-02-14T04:24:15;8.30;81.20
6738;DHT22;3406;49.902;8.596;2024-02-14T04:26:42;8.30;81.30
6738;DHT22;3406;49.902;8.596;2024-02-14T04:29:08;8.30;81.20
6738;DHT22;3406;49.902;8.596;2024-02-14T04:31:36;8.40;81.20
6738;DHT22;3406;49.902;8.596;2024-02-14T04:34:02;8.40;81.20
6738;DHT22;3406;49.902;8.596;2024-02-14T04:36:33;8.40;81.10
6738;DHT22;3406;49.902;8.596;2024-02-14T04:39:00;8.40;81.10
6738;DHT22;3406;49.902;8.596;2024-02-14T04:41:28;8.40;81.10
6738;DHT22;3406;49.902;8.596;2024-02-14T04:43:56;8.40;81.00
6738;DHT22;3406;49.902;8.596;2024-02-14T04:46:23;8.40;81.00
6738;DHT22;3406;49.902;8.596;2024-02-14T04:48:50;8.40;81.00
6738;DHT22;3406;49.902;8.596;2024-02-14T04:51:17;8.40;81.00
6738;DHT22;3406;49.902;8.596;2024-02-14T04:53:44;8.40;81.10
6738;DHT22;3406;49.902;8.596;2024-02-14T04:56:11;8.40;81.10
6738;DHT22;3406;49.902;8.596;2024-02-14T04:58:40;8.40;81.10
6738;DHT22;3406;49.902;8.596;2024-02-14T05:01:06;8.40;81.10
6738;DHT22;3406;49.902;8.596;2024-02-14T05:03:33;8.40;81.20
6738;DHT22;3406;49.902;8.596;2024-02-14T05:06:02;8.40;81.10
6738;DHT22;3406;49.902;8.596;2024-02-14T05:08:29;8.40;81.10
6738;DHT22;3406;49.902;8.596;2024-02-14T05:10:55;8.40;81.20
6738;DHT22;3406;49.902;8.596;2024-02-14T05:13:22;8.40;81.30
6738;DHT22;3406;49.902;8.596;2024-02-14T05:15:51;8.40;81.30
6738;DHT22;3406;49.902;8.596;2024-02-14T05:18:18;8.40;81.30
6738;DHT22;3406;49.902;8.596;2024-02-14T05:20:45;8.40;81.30
6738;DHT22;3406;49.902;8.596;2024-02-14T05:23:12;8.50;81.40
6738;DHT22;3406;49.902;8.596;2024-02-14T05:25:39;8.50;81.40
6738;DHT22;3406;49.902;8.596;2024-02-14T05:28:06;8.50;81.40
6738;DHT22;3406;49.902;8.596;2024-02-14T05:30:33;8.50;81.40
6738;DHT22;3406;49.902;8.596;2024-02-14T05:33:03;8.50;81.30
6738;DHT22;3406;49.902;8.596;2024-02-14T05:35:30;8.50;81.30
6738;DHT22;3406;49.902;8.596;2024-02-14T05:37:57;8.50;81.30
6738;DHT22;3406;49.902;8.596;2024-02-14T05:40:24;8.50;81.30
6738;DHT22;3406;49.902;8.596;2024-02-14T05:42:51;8.50;81.30
6738;DHT22;3406;49.902;8.596;2024-02-14T05:45:18;8.50;81.30
6738;DHT22;3406;49.902;8.596;2024-02-14T05:47:45;8.50;81.40
6738;DHT22;3406;49.902;8.596;2024-02-14T05:50:13;8.40;81.50
6738;DHT22;3406;49.902;8.596;2024-02-14T05:52:40;8.50;81.60
6738;DHT22;3406;49.902;8.596;2024-02-14T05:55:07;8.50;81.60
6738;DHT22;3406;49.902;8.596;2024-02-14T05:57:34;8.50;81.60
6738;DHT22;3406;49.902;8.596;2024-02-14T06:00:01;8.50;82.00
6738;DHT22;3406;49.902;8.596;2024-02-14T06:02:29;8.50;82.00
6738;DHT22;3406;49.902;8.596;2024-02-14T06:04:56;8.50;81.90
6738;DHT22;3406;49.902;8.596;2024-02-14T06:07:24;8.50;81.90
6738;DHT22;3406;49.902;8.596;2024-02-14T06:09:51;8.50;81.90
6738;DHT22;3406;49.902;8.596;2024-02-14T06:12:18;8.50;81.90
6738;DHT22;3406;49.902;8.596;2024-02-14T06:14:49;8.50;82.00
6738;DHT22;3406;49.902;8.596;2024-02-14T06:17:16;8.50;82.00
6738;DHT22;3406;49.902;8.596;2024-02-14T06:19:43;8.40;81.90
6738;DHT22;3406;49.902;8.596;2024-02-14T06:22:10;8.40;82.50
6738;DHT22;3406;49.902;8.596;2024-02-14T06:24:39;8.40;81.90
6738;DHT22;3406;49.902;8.596;2024-02-14T06:27:06;8.40;81.90
6738;DHT22;3406;49.902;8.596;2024-02-14T06:29:33;8.40;82.30
6738;DHT22;3406;49.902;8.596;2024-02-14T06:32:00;8.40;82.40
6738;DHT22;3406;49.902;8.596;2024-02-14T06:34:29;8.40;82.60
6738;DHT22;3406;49.902;8.596;2024-02-14T06:36:55;8.40;82.60
6738;DHT22;3406;49.902;8.596;2024-02-14T06:39:22;8.40;82.80
6738;DHT22;3406;49.902;8.596;2024-02-14T06:41:51;8.30;82.90
6738;DHT22;3406;49.902;8.596;2024-02-14T06:44:17;8.30;83.10
6738;DHT22;3406;49.902;8.596;2024-02-14T06:46:44;8.30;83.40
6738;DHT22;3406;49.902;8.596;2024-02-14T06:49:11;8.30;83.60
6738;DHT22;3406;49.902;8.596;2024-02-14T06:51:38;8.30;83.80
6738;DHT22;3406;49.902;8.596;2024-02-14T06:54:05;8.40;84.00
6738;DHT22;3406;49.902;8.596;2024-02-14T06:56:33;8.30;84.10
6738;DHT22;3406;49.902;8.596;2024-02-14T06:59:01;8.40;84.30
6738;DHT22;3406;49.902;8.596;2024-02-14T07:01:29;8.40;84.30
6738;DHT22;3406;49.902;8.596;2024-02-14T07:03:55;8.40;84.40
6738;DHT22;3406;49.902;8.596;2024-02-14T07:06:22;8.50;84.60
6738;DHT22;3406;49.902;8.596;2024-02-14T07:08:49;8.50;84.60
6738;DHT22;3406;49.902;8.596;2024-02-14T07:11:16;8.50;84.60
6738;DHT22;3406;49.902;8.596;2024-02-14T07:13:44;8.50;84.70
6738;DHT22;3406;49.902;8.596;2024-02-14T07:16:12;8.50;84.60
6738;DHT22;3406;49.902;8.596;2024-02-14T07:18:39;8.50;84.60
6738;DHT22;3406;49.902;8.596;2024-02-14T07:21:06;8.50;84.60
6738;DHT22;3406;49.902;8.596;2024-02-14T07:23:33;8.50;84.60
6738;DHT22;3406;49.902;8.596;2024-02-14T07:26:00;8.50;84.50
6738;DHT22;3406;49.902;8.596;2024-02-14T07:28:27;8.60;84.60
6738;DHT22;3406;49.902;8.596;2024-02-14T07:30:54;8.50;84.40
6738;DHT22;3406;49.902;8.596;2024-02-14T07:33:22;8.60;84.50
6738;DHT22;3406;49.902;8.596;2024-02-14T07:35:50;8.70;84.60
6738;DHT22;3406;49.902;8.596;2024-02-14T07:38:17;8.70;84.50
6738;DHT22;3406;49.902;8.596;2024-02-14T07:40:44;8.70;84.50
6738;DHT22;3406;49.902;8.596;2024-02-14T07:43:12;8.80;84.50
6738;DHT22;3406;49.902;8.596;2024-02-14T07:45:41;8.80;84.40
6738;DHT22;3406;49.902;8.596;2024-02-14T07:48:08;8.80;84.40
6738;DHT22;3406;49.902;8.596;2024-02-14T07:50:36;8.90;84.40
6738;DHT22;3406;49.902;8.596;2024-02-14T07:53:03;8.80;84.10
6738;DHT22;3406;49.902;8.596;2024-02-14T07:55:31;8.90;84.20
6738;DHT22;3406;49.902;8.596;2024-02-14T07:57:58;8.90;84.20
6738;DHT22;3406;49.902;8.596;2024-02-14T08:00:26;8.90;84.30
6738;DHT22;3406;49.902;8.596;2024-02-14T08:02:52;8.90;84.20
6738;DHT22;3406;49.902;8.596;2024-02-14T08:05:19;8.90;84.10
6738;DHT22;3406;49.902;8.596;2024-02-14T08:07:47;8.90;84.10
6738;DHT22;3406;49.902;8.596;2024-02-14T08:10:14;8.90;84.10
6738;DHT22;3406;49.902;8.596;2024-02-14T08:12:40;8.90;84.20
6738;DHT22;3406;49.902;8.596;2024-02-14T08:15:08;9.00;84.20
6738;DHT22;3406;49.902;8.596;2024-02-14T08:17:35;9.00;84.20
6738;DHT22;3406;49.902;8.596;2024-02-14T08:20:02;9.00;84.10
6738;DHT22;3406;49.902;8.596;2024-02-14T08:22:29;9.00;84.10
6738;DHT22;3406;49.902;8.596;2024-02-14T08:24:58;9.00;84.20
6738;DHT22;3406;49.902;8.596;2024-02-14T08:27:24;9.00;84.20
6738;DHT22;3406;49.902;8.596;2024-02-14T08:29:53;9.00;84.30
6738;DHT22;3406;49.902;8.596;2024-02-14T08:32:20;9.00;84.40
6738;DHT22;3406;49.902;8.596;2024-02-14T08:42:04;9.20;84.80
6738;DHT22;3406;49.902;8.596;2024-02-14T08:44:33;9.30;84.80
6738;DHT22;3406;49.902;8.596;2024-02-14T08:46:59;9.30;84.80
6738;DHT22;3406;49.902;8.596;2024-02-14T08:49:26;9.30;84.80
6738;DHT22;3406;49.902;8.596;2024-02-14T08:51:53;9.30;84.70
6738;DHT22;3406;49.902;8.596;2024-02-14T08:54:20;9.30;84.90
6738;DHT22;3406;49.902;8.596;2024-02-14T08:56:47;9.40;85.10
6738;DHT22;3406;49.902;8.596;2024-02-14T08:59:15;9.40;85.10
6738;DHT22;3406;49.902;8.596;2024-02-14T09:01:42;9.40;85.20
6738;DHT22;3406;49.902;8.596;2024-02-14T09:04:08;9.40;85.20
6738;DHT22;3406;49.902;8.596;2024-02-14T09:06:35;9.50;85.30
6738;DHT22;3406;49.902;8.596;2024-02-14T09:09:02;9.50;85.30
6738;DHT22;3406;49.902;8.596;2024-02-14T09:11:29;9.50;85.30
6738;DHT22;3406;49.902;8.596;2024-02-14T09:13:57;9.50;85.30
6738;DHT22;3406;49.902;8.596;2024-02-14T09:16:31;9.60;85.50
6738;DHT22;3406;49.902;8.596;2024-02-14T09:18:58;9.60;85.60
6738;DHT22;3406;49.902;8.596;2024-02-14T09:21:26;9.60;85.70
6738;DHT22;3406;49.902;8.596;2024-02-14T09:23:54;9.70;85.80
6738;DHT22;3406;49.902;8.596;2024-02-14T09:26:20;9.80;85.70
6738;DHT22;3406;49.902;8.596;2024-02-14T09:28:47;9.80;85.60
6738;DHT22;3406;49.902;8.596;2024-02-14T09:31:17;9.80;85.60
6738;DHT22;3406;49.902;8.596;2024-02-14T09:33:45;9.80;85.70
6738;DHT22;3406;49.902;8.596;2024-02-14T09:36:13;9.80;85.80
6738;DHT22;3406;49.902;8.596;2024-02-14T09:38:40;9.80;85.80
6738;DHT22;3406;49.902;8.596;2024-02-14T09:41:14;9.80;85.90
6738;DHT22;3406;49.902;8.596;2024-02-14T09:43:44;9.80;86.00
6738;DHT22;3406;49.902;8.596;2024-02-14T09:46:12;9.80;86.10
6738;DHT22;3406;49.902;8.596;2024-02-14T09:48:40;9.90;86.30
6738;DHT22;3406;49.902;8.596;2024-02-14T09:51:09;9.90;86.40
6738;DHT22;3406;49.902;8.596;2024-02-14T09:53:38;9.90;86.50
6738;DHT22;3406;49.902;8.596;2024-02-14T09:56:05;9.90;86.60
6738;DHT22;3406;49.902;8.596;2024-02-14T09:58:33;10.00;85.60
6738;DHT22;3406;49.902;8.596;2024-02-14T10:01:00;10.00;85.70
6738;DHT22;3406;49.902;8.596;2024-02-14T10:03:27;10.10;85.80
6738;DHT22;3406;49.902;8.596;2024-02-14T10:05:54;10.10;85.80
6738;DHT22;3406;49.902;8.596;2024-02-14T10:08:22;10.10;85.90
6738;DHT22;3406;49.902;8.596;2024-02-14T10:10:49;10.20;86.10
6738;DHT22;3406;49.902;8.596;2024-02-14T10:13:16;10.20;86.10
6738;DHT22;3406;49.902;8.596;2024-02-14T10:15:43;10.30;86.20
6738;DHT22;3406;49.902;8.596;2024-02-14T10:18:09;10.30;86.20
6738;DHT22;3406;49.902;8.596;2024-02-14T10:20:36;10.40;86.40
6738;DHT22;3406;49.902;8.596;2024-02-14T10:23:07;10.50;86.50
6738;DHT22;3406;49.902;8.596;2024-02-14T10:25:36;10.60;86.50
6738;DHT22;3406;49.902;8.596;2024-02-14T10:28:04;10.60;86.60
6738;DHT22;3406;49.902;8.596;2024-02-14T10:30:34;10.80;86.80
6738;DHT22;3406;49.902;8.596;2024-02-14T10:33:02;10.90;86.60
6738;DHT22;3406;49.902;8.596;2024-02-14T10:35:30;10.90;86.40
6738;DHT22;3406;49.902;8.596;2024-02-14T10:37:58;10.90;86.40
6738;DHT22;3406;49.902;8.596;2024-02-14T10:40:27;10.90;86.50
6738;DHT22;3406;49.902;8.596;2024-02-14T10:42:55;11.00;86.60
6738;DHT22;3406;49.902;8.596;2024-02-14T10:45:24;11.00;86.70
6738;DHT22;3406;49.902;8.596;2024-02-14T10:47:51;11.00;86.80
6738;DHT22;3406;49.902;8.596;2024-02-14T10:50:21;11.00;86.80
6738;DHT22;3406;49.902;8.596;2024-02-14T10:52:48;11.00;87.00
6738;DHT22;3406;49.902;8.596;2024-02-14T10:55:19;11.00;87.10
6738;DHT22;3406;49.902;8.596;2024-02-14T10:57:49;11.00;87.10
6738;DHT22;3406;49.902;8.596;2024-02-14T11:00:18;11.00;87.10
6738;DHT22;3406;49.902;8.596;2024-02-14T11:02:45;11.00;87.30
6738;DHT22;3406;49.902;8.596;2024-02-14T11:05:13;11.10;87.50
6738;DHT22;3406;49.902;8.596;2024-02-14T11:07:44;11.20;87.70
6738;DHT22;3406;49.902;8.596;2024-02-14T11:10:13;11.20;87.70
6738;DHT22;3406;49.902;8.596;2024-02-14T11:12:41;11.20;87.70
6738;DHT22;3406;49.902;8.596;2024-02-14T11:15:11;11.30;88.00
6738;DHT22;3406;49.902;8.596;2024-02-14T11:17:39;11.30;88.00
6738;DHT22;3406;49.902;8.596;2024-02-14T11:20:16;11.30;88.10
6738;DHT22;3406;49.902;8.596;2024-02-14T11:22:57;11.40;88.30
6738;DHT22;3406;49.902;8.596;2024-02-14T11:25:31;11.50;88.50
6738;DHT22;3406;49.902;8.596;2024-02-14T11:27:59;11.60;88.70
6738;DHT22;3406;49.902;8.596;2024-02-14T11:30:31;11.60;88.60
6738;DHT22;3406;49.902;8.596;2024-02-14T11:33:13;11.70;88.80
6738;DHT22;3406;49.902;8.596;2024-02-14T11:35:41;11.80;88.70
6738;DHT22;3406;49.902;8.596;2024-02-14T11:38:08;12.00;88.70
6738;DHT22;3406;49.902;8.596;2024-02-14T11:40:35;12.00;88.40
6738;DHT22;3406;49.902;8.596;2024-02-14T11:43:04;12.00;88.30
6738;DHT22;3406;49.902;8.596;2024-02-14T11:45:30;12.10;88.50
6738;DHT22;3406;49.902;8.596;2024-02-14T11:47:57;12.10;88.40
6738;DHT22;3406;49.902;8.596;2024-02-14T11:50:25;12.10;88.40
6738;DHT22;3406;49.902;8.596;2024-02-14T11:52:52;12.10;88.30
6738;DHT22;3406;49.902;8.596;2024-02-14T11:55:27;12.10;88.40
6738;DHT22;3406;49.902;8.596;2024-02-14T11:57:53;12.10;88.50
6738;DHT22;3406;49.902;8.596;2024-02-14T12:00:20;12.10;88.40
6738;DHT22;3406;49.902;8.596;2024-02-14T12:02:47;12.10;88.50
6738;DHT22;3406;49.902;8.596;2024-02-14T12:05:15;12.10;88.60
6738;DHT22;3406;49.902;8.596;2024-02-14T12:07:43;12.10;88.60
6738;DHT22;3406;49.902;8.596;2024-02-14T12:10:10;12.10;88.60
6738;DHT22;3406;49.902;8.596;2024-02-14T12:12:38;12.10;88.60
6738;DHT22;3406;49.902;8.596;2024-02-14T12:15:05;12.00;88.60
6738;DHT22;3406;49.902;8.596;2024-02-14T12:17:32;12.00;88.90
6738;DHT22;3406;49.902;8.596;2024-02-14T12:20:07;11.90;88.90
6738;DHT22;3406;49.902;8.596;2024-02-14T12:22:35;11.90;89.20
6738;DHT22;3406;49.902;8.596;2024-02-14T12:25:05;12.00;89.40
6738;DHT22;3406;49.902;8.596;2024-02-14T12:27:33;11.90;89.30
6738;DHT22;3406;49.902;8.596;2024-02-14T12:30:02;11.90;89.30
6738;DHT22;3406;49.902;8.596;2024-02-14T12:32:29;11.90;89.50
6738;DHT22;3406;49.902;8.596;2024-02-14T12:34:56;11.90;89.60
6738;DHT22;3406;49.902;8.596;2024-02-14T12:37:23;11.90;89.60
6738;DHT22;3406;49.902;8.596;2024-02-14T12:39:49;11.90;89.70
6738;DHT22;3406;49.902;8.596;2024-02-14T12:42:17;12.00;89.90
6738;DHT22;3406;49.902;8.596;2024-02-14T12:44:50;12.00;89.90
6738;DHT22;3406;49.902;8.596;2024-02-14T12:47:17;12.00;89.90
6738;DHT22;3406;49.902;8.596;2024-02-14T12:49:47;12.00;90.00
6738;DHT22;3406;49.902;8.596;2024-02-14T12:52:15;12.00;90.00
6738;DHT22;3406;49.902;8.596;2024-02-14T12:54:42;12.10;90.00
6738;DHT22;3406;49.902;8.596;2024-02-14T12:57:09;12.10;90.00
6738;DHT22;3406;49.902;8.596;2024-02-14T12:59:38;12.10;90.00
6738;DHT22;3406;49.902;8.596;2024-02-14T13:02:05;12.20;90.10
6738;DHT22;3406;49.902;8.596;2024-02-14T13:04:32;12.20;90.10
6738;DHT22;3406;49.902;8.596;2024-02-14T13:07:00;12.20;90.10
6738;DHT22;3406;49.902;8.596;2024-02-14T13:09:27;12.20;90.10
6738;DHT22;3406;49.902;8.596;2024-02-14T13:11:54;12.30;90.20
6738;DHT22;3406;49.902;8.596;2024-02-14T13:14:20;12.30;90.20
6738;DHT22;3406;49.902;8.596;2024-02-14T13:16:48;12.30;90.20
6738;DHT22;3406;49.902;8.596;2024-02-14T13:19:15;12.30;90.10
6738;DHT22;3406;49.902;8.596;2024-02-14T13:21:42;12.30;90.10
6738;DHT22;3406;49.902;8.596;2024-02-14T13:24:11;12.20;90.20
6738;DHT22;3406;49.902;8.596;2024-02-14T13:26:39;12.20;90.30
6738;DHT22;3406;49.902;8.596;2024-02-14T13:29:06;12.10;90.50
6738;DHT22;3406;49.902;8.596;2024-02-14T13:31:32;12.10;90.60
6738;DHT22;3406;49.902;8.596;2024-02-14T13:34:00;12.00;90.80
6738;DHT22;3406;49.902;8.596;2024-02-14T13:36:29;11.90;91.00
6738;DHT22;3406;49.902;8.596;2024-02-14T13:38:56;11.90;91.20
6738;DHT22;3406;49.902;8.596;2024-02-14T13:41:22;11.80;91.30
6738;DHT22;3406;49.902;8.596;2024-02-14T13:43:49;11.80;91.50
6738;DHT22;3406;49.902;8.596;2024-02-14T13:46:16;11.80;91.80
6738;DHT22;3406;49.902;8.596;2024-02-14T13:48:43;11.70;91.90
6738;DHT22;3406;49.902;8.596;2024-02-14T13:51:11;11.70;92.10
6738;DHT22;3406;49.902;8.596;2024-02-14T13:53:38;11.70;92.40
6738;DHT22;3406;49.902;8.596;2024-02-14T13:56:05;11.70;92.90
6738;DHT22;3406;49.902;8.596;2024-02-14T13:58:32;11.70;92.70
6738;DHT22;3406;49.902;8.596;2024-02-14T14:00:59;11.70;92.90
6738;DHT22;3406;49.902;8.596;2024-02-14T14:03:25;11.80;93.00
6738;DHT22;3406;49.902;8.596;2024-02-14T14:05:53;11.80;93.20
6738;DHT22;3406;49.902;8.596;2024-02-14T14:08:21;11.70;93.30
6738;DHT22;3406;49.902;8.596;2024-02-14T14:10:48;11.70;93.50
6738;DHT22;3406;49.902;8.596;2024-02-14T14:13:14;11.70;93.70
6738;DHT22;3406;49.902;8.596;2024-02-14T14:15:41;11.70;93.90
6738;DHT22;3406;49.902;8.596;2024-02-14T14:18:08;11.70;94.00
6738;DHT22;3406;49.902;8.596;2024-02-14T14:20:36;11.70;94.10
6738;DHT22;3406;49.902;8.596;2024-02-14T14:23:02;11.70;94.40
6738;DHT22;3406;49.902;8.596;2024-02-14T14:25:31;11.70;94.60
6738;DHT22;3406;49.902;8.596;2024-02-14T14:27:58;11.70;94.50
6738;DHT22;3406;49.902;8.596;2024-02-14T14:30:25;11.60;94.60
6738;DHT22;3406;49.902;8.596;2024-02-14T14:32:52;11.60;94.70
6738;DHT22;3406;49.902;8.596;2024-02-14T14:35:18;11.60;94.90
6738;DHT22;3406;49.902;8.596;2024-02-14T14:37:45;11.60;94.90
6738;DHT22;3406;49.902;8.596;2024-02-14T14:40:12;11.70;95.00
6738;DHT22;3406;49.902;8.596;2024-02-14T14:42:40;11.70;95.00
6738;DHT22;3406;49.902;8.596;2024-02-14T14:45:07;11.70;95.10
6738;DHT22;3406;49.902;8.596;2024-02-14T14:47:34;11.70;95.20
6738;DHT22;3406;49.902;8.596;2024-02-14T14:50:01;11.70;95.40
6738;DHT22;3406;49.902;8.596;2024-02-14T14:52:29;11.60;95.40
6738;DHT22;3406;49.902;8.596;2024-02-14T14:54:55;11.60;95.60
6738;DHT22;3406;49.902;8.596;2024-02-14T14:57:22;11.70;95.70
6738;DHT22;3406;49.902;8.596;2024-02-14T14:59:50;11.70;95.80
6738;DHT22;3406;49.902;8.596;2024-02-14T15:02:17;11.70;95.90
6738;DHT22;3406;49.902;8.596;2024-02-14T15:04:43;11.70;95.90
6738;DHT22;3406;49.902;8.596;2024-02-14T15:07:12;11.60;96.00
6738;DHT22;3406;49.902;8.596;2024-02-14T15:09:39;11.60;96.10
6738;DHT22;3406;49.902;8.596;2024-02-14T15:12:06;11.60;96.20
6738;DHT22;3406;49.902;8.596;2024-02-14T15:14:33;11.60;96.30
6738;DHT22;3406;49.902;8.596;2024-02-14T15:17:01;11.60;96.50
6738;DHT22;3406;49.902;8.596;2024-02-14T15:19:30;11.50;96.60
6738;DHT22;3406;49.902;8.596;2024-02-14T15:21:56;11.50;96.70
6738;DHT22;3406;49.902;8.596;2024-02-14T15:24:28;11.50;96.80
6738;DHT22;3406;49.902;8.596;2024-02-14T15:26:55;11.50;96.90
6738;DHT22;3406;49.902;8.596;2024-02-14T15:29:26;11.40;97.00
6738;DHT22;3406;49.902;8.596;2024-02-14T15:32:11;11.40;97.50
6738;DHT22;3406;49.902;8.596;2024-02-14T15:34:56;11.40;97.30
6738;DHT22;3406;49.902;8.596;2024-02-14T15:37:23;11.40;97.70
6738;DHT22;3406;49.902;8.596;2024-02-14T15:39:48;11.40;97.60
6738;DHT22;3406;49.902;8.596;2024-02-14T15:42:16;11.30;97.80
6738;DHT22;3406;49.902;8.596;2024-02-14T15:44:43;11.40;98.00
6738;DHT22;3406;49.902;8.596;2024-02-14T15:47:11;11.30;98.00
6738;DHT22;3406;49.902;8.596;2024-02-14T15:49:38;11.40;98.20
6738;DHT22;3406;49.902;8.596;2024-02-14T15:52:05;11.30;98.30
6738;DHT22;3406;49.902;8.596;2024-02-14T15:54:32;11.30;98.50
6738;DHT22;3406;49.902;8.596;2024-02-14T15:56:58;11.30;98.60
6738;DHT22;3406;49.902;8.596;2024-02-14T15:59:25;11.30;98.70
6738;DHT22;3406;49.902;8.596;2024-02-14T16:01:52;11.30;98.90
6738;DHT22;3406;49.902;8.596;2024-02-14T16:04:21;11.30;99.10
6738;DHT22;3406;49.902;8.596;2024-02-14T16:06:47;11.30;99.20
6738;DHT22;3406;49.902;8.596;2024-02-14T16:09:14;11.30;99.30
6738;DHT22;3406;49.902;8.596;2024-02-14T16:11:41;11.30;99.40
6738;DHT22;3406;49.902;8.596;2024-02-14T16:14:07;11.30;99.50
6738;DHT22;3406;49.902;8.596;2024-02-14T16:16:34;11.30;99.60
6738;DHT22;3406;49.902;8.596;2024-02-14T16:19:01;11.30;99.60
6738;DHT22;3406;49.902;8.596;2024-02-14T16:21:30;11.30;99.80